createdAt,value
2023-01-23T00:03:12.484Z,1.30
2023-01-23T00:09:21.320Z,1.30
2023-01-23T00:15:27.958Z,1.30
2023-01-23T00:21:32.969Z,1.30
2023-01-23T00:27:35.483Z,1.30
2023-01-23T00:33:40.687Z,1.20
2023-01-23T00:39:43.077Z,1.30
2023-01-23T00:45:46.145Z,1.30
2023-01-23T00:51:48.263Z,1.30
2023-01-23T00:57:50.139Z,1.30
2023-01-23T01:03:52.297Z,1.40
2023-01-23T01:09:55.250Z,1.40
2023-01-23T01:15:58.144Z,1.30
2023-01-23T01:22:00.761Z,1.30
2023-01-23T01:28:02.784Z,1.30
2023-01-23T01:34:04.601Z,1.30
2023-01-23T01:40:10.448Z,1.40
2023-01-23T01:46:26.654Z,1.40
2023-01-23T01:52:29.053Z,1.40
2023-01-23T01:58:34.143Z,1.40
2023-01-23T02:04:38.468Z,1.40
2023-01-23T02:10:41.828Z,1.30
2023-01-23T02:16:52.343Z,1.30
2023-01-23T02:23:31.291Z,1.40
2023-01-23T02:29:46.012Z,1.30
2023-01-23T02:35:49.086Z,1.30
2023-01-23T02:41:52.969Z,1.30
2023-01-23T02:47:58.891Z,1.30
2023-01-23T02:54:01.079Z,1.30
2023-01-23T03:00:16.088Z,1.30
2023-01-23T03:06:18.231Z,1.30
2023-01-23T03:12:21.851Z,1.30
2023-01-23T03:18:24.923Z,1.30
2023-01-23T03:24:27.444Z,1.30
2023-01-23T03:30:29.271Z,1.30
2023-01-23T03:36:31.127Z,1.30
2023-01-23T03:42:34.866Z,1.30
2023-01-23T03:48:38.426Z,1.30
2023-01-23T03:54:48.056Z,1.30
2023-01-23T04:00:54.374Z,1.30
2023-01-23T04:06:56.346Z,1.30
2023-01-23T04:12:58.385Z,1.30
2023-01-23T04:19:01.850Z,1.30
2023-01-23T04:25:04.749Z,1.30
2023-01-23T04:31:09.320Z,1.30
2023-01-23T04:37:12.412Z,1.20
2023-01-23T04:43:15.364Z,1.10
2023-01-23T04:49:25.823Z,1.00
2023-01-23T04:55:28.289Z,1.00
2023-01-23T05:01:31.742Z,0.90
2023-01-23T05:07:37.057Z,0.90
2023-01-23T05:13:42.300Z,0.90
2023-01-23T05:19:44.205Z,0.90
2023-01-23T05:25:46.881Z,0.90
2023-01-23T05:31:49.017Z,1.00
2023-01-23T05:38:11.744Z,0.90
2023-01-23T05:44:13.715Z,0.90
2023-01-23T05:50:35.974Z,0.90
2023-01-23T05:56:37.905Z,0.80
2023-01-23T06:02:58.592Z,0.70
2023-01-23T06:09:24.677Z,0.70
2023-01-23T06:15:26.694Z,0.70
2023-01-23T06:21:32.926Z,0.50
2023-01-23T06:27:35.216Z,0.40
2023-01-23T06:33:40.160Z,0.30
2023-01-23T06:39:45.903Z,0.30
2023-01-23T06:45:50.160Z,0.20
2023-01-23T06:51:57.952Z,0.20
2023-01-23T07:06:12.533Z,0.40
2023-01-23T07:19:58.003Z,0.60
2023-01-23T07:26:01.685Z,0.70
2023-01-23T07:32:03.592Z,0.80
2023-01-23T07:38:05.348Z,0.90
2023-01-23T07:44:07.190Z,0.90
2023-01-23T07:50:13.526Z,1.10
2023-01-23T07:56:15.339Z,1.10
2023-01-23T08:02:17.180Z,1.20
2023-01-23T08:08:19.010Z,1.30
2023-01-23T08:14:21.015Z,1.40
2023-01-23T08:20:23.260Z,1.50
2023-01-23T08:26:25.362Z,1.70
2023-01-23T08:32:27.134Z,1.80
2023-01-23T08:38:28.910Z,2.00
2023-01-23T08:44:32.711Z,2.20
2023-01-23T08:50:34.680Z,2.30
2023-01-23T08:56:36.467Z,2.60
2023-01-23T09:02:38.501Z,2.80
2023-01-23T09:08:40.775Z,2.90
2023-01-23T09:14:42.687Z,2.90
2023-01-23T09:20:44.453Z,3.00
2023-01-23T09:26:46.287Z,3.10
2023-01-23T09:32:48.055Z,3.30
2023-01-23T09:38:49.870Z,3.50
2023-01-23T09:44:57.460Z,3.60
2023-01-23T09:51:05.911Z,3.80
2023-01-23T09:57:18.895Z,4.00
2023-01-23T10:03:21.809Z,4.10
2023-01-23T10:09:36.794Z,4.40
2023-01-23T10:15:56.256Z,4.40
2023-01-23T10:21:57.971Z,4.50
2023-01-23T10:28:16.356Z,4.60
2023-01-23T10:34:26.889Z,4.80
2023-01-23T10:40:48.459Z,4.80
2023-01-23T10:46:56.232Z,4.90
2023-01-23T10:53:05.455Z,5.10
2023-01-23T10:59:18.084Z,5.30
2023-01-23T11:05:50.687Z,5.30
2023-01-23T11:12:05.088Z,5.30
2023-01-23T11:18:44.439Z,5.50
2023-01-23T11:24:46.174Z,5.40
2023-01-23T11:30:50.409Z,5.00
2023-01-23T11:37:07.867Z,4.80
2023-01-23T11:43:17.643Z,4.80
2023-01-23T11:49:31.513Z,4.80
2023-01-23T11:55:51.957Z,4.80
2023-01-23T12:02:13.279Z,4.60
2023-01-23T12:08:36.378Z,4.40
2023-01-23T12:14:47.280Z,4.10
2023-01-23T12:21:09.653Z,4.00
2023-01-23T12:27:31.530Z,4.10
2023-01-23T12:33:53.130Z,4.20
2023-01-23T12:40:29.307Z,4.00
2023-01-23T12:46:58.597Z,4.00
2023-01-23T12:53:24.731Z,3.80
2023-01-23T12:59:32.244Z,3.90
2023-01-23T13:05:40.080Z,4.10
2023-01-23T13:11:58.815Z,4.10
2023-01-23T13:18:02.413Z,4.20
2023-01-23T13:25:00.788Z,4.20
2023-01-23T13:31:04.425Z,4.20
2023-01-23T13:37:32.509Z,4.20
2023-01-23T13:43:49.687Z,4.20
2023-01-23T14:22:28.277Z,3.10
2023-01-23T14:28:30.221Z,3.00
2023-01-23T14:34:39.266Z,3.00
2023-01-23T14:40:50.566Z,2.90
2023-01-23T14:46:55.638Z,2.80
2023-01-23T14:53:06.054Z,2.70
2023-01-23T14:59:34.122Z,2.60
2023-01-23T15:05:57.317Z,2.50
2023-01-23T15:12:18.212Z,2.40
2023-01-23T15:18:33.127Z,2.30
2023-01-23T15:24:35.314Z,2.30
2023-01-23T15:30:42.818Z,2.30
2023-01-23T15:36:47.530Z,2.10
2023-01-23T15:43:06.348Z,2.20
2023-01-23T15:49:16.487Z,2.00
2023-01-23T15:55:27.732Z,2.00
2023-01-23T16:01:29.691Z,1.90
2023-01-23T16:07:34.602Z,1.90
2023-01-23T16:13:36.751Z,1.90
2023-01-23T16:19:38.537Z,1.90
2023-01-23T16:25:44.549Z,1.90
2023-01-23T16:31:47.095Z,2.00
2023-01-23T16:37:53.389Z,1.90
2023-01-23T16:43:55.189Z,1.80
2023-01-23T16:49:57.069Z,1.80
2023-01-23T16:56:00.583Z,1.80
2023-01-23T17:02:12.597Z,1.80
2023-01-23T17:08:18.627Z,1.80
2023-01-23T17:14:25.553Z,1.90
2023-01-23T17:20:28.700Z,1.80
2023-01-23T17:26:30.586Z,1.80
2023-01-23T17:40:20.341Z,1.80
2023-01-23T17:46:27.605Z,1.70
2023-01-23T17:52:30.754Z,1.70
2023-01-23T17:58:32.534Z,1.70
2023-01-23T18:04:42.980Z,1.80
2023-01-23T18:10:47.427Z,1.80
2023-01-23T18:16:50.280Z,1.80
2023-01-23T18:22:52.428Z,1.80
2023-01-23T18:29:10.369Z,1.80
2023-01-23T18:35:29.018Z,1.90
2023-01-23T18:41:31.075Z,1.90
2023-01-23T18:47:33.076Z,1.90
2023-01-23T18:53:45.027Z,1.90
2023-01-23T19:00:00.443Z,1.80
2023-01-23T19:06:02.505Z,1.80
2023-01-23T19:12:27.373Z,1.80
2023-01-23T19:18:47.136Z,1.90
2023-01-23T19:24:49.422Z,1.80
2023-01-23T19:30:51.833Z,1.80
2023-01-23T19:36:53.634Z,1.80
2023-01-23T19:43:12.820Z,1.80
2023-01-23T19:49:15.722Z,1.80
2023-01-23T19:55:24.986Z,1.80
2023-01-23T20:01:40.396Z,1.80
2023-01-23T20:07:42.351Z,1.80
2023-01-23T20:13:44.622Z,1.70
2023-01-23T20:19:48.062Z,1.70
2023-01-23T20:25:57.659Z,1.70
2023-01-23T20:31:59.512Z,1.70
2023-01-23T20:38:01.624Z,1.70
2023-01-23T20:44:03.507Z,1.70
2023-01-23T20:50:05.764Z,1.70
2023-01-23T20:56:13.101Z,1.70
2023-01-23T21:02:23.943Z,1.80
2023-01-23T21:08:25.765Z,1.80
2023-01-23T21:14:27.581Z,1.80
2023-01-23T21:20:29.400Z,1.80
2023-01-23T21:26:31.282Z,1.70
2023-01-23T21:32:33.251Z,1.70
2023-01-23T21:38:35.033Z,1.70
2023-01-23T21:44:36.938Z,1.70
2023-01-23T21:50:38.699Z,1.70
2023-01-23T21:56:40.535Z,1.70
2023-01-23T22:02:42.497Z,1.70
2023-01-23T22:08:44.493Z,1.70
2023-01-23T22:14:46.268Z,1.60
2023-01-23T22:20:52.704Z,1.60
2023-01-23T22:26:54.485Z,1.60
2023-01-23T22:32:56.230Z,1.60
2023-01-23T22:38:58.248Z,1.60
2023-01-23T22:45:00.005Z,1.60
2023-01-23T22:51:03.813Z,1.60
2023-01-23T22:57:05.675Z,1.60
2023-01-23T23:03:07.514Z,1.60
2023-01-23T23:09:10.611Z,1.60
2023-01-23T23:15:12.370Z,1.50
2023-01-23T23:21:16.192Z,1.50
2023-01-23T23:27:17.993Z,1.50
2023-01-23T23:33:20.441Z,1.50
2023-01-23T23:39:22.230Z,1.50
2023-01-23T23:45:24.079Z,1.50
2023-01-23T23:51:26.726Z,1.50
2023-01-23T23:57:28.579Z,1.50
